Time;durP1;ratioP1;P1;durP2;ratioP2;P2;SDS_P1;SDS_P2;PMS_P1;PMS_P2;Temp;Humidity;BMP_temperature;BMP_pressure;BME280_temperature;BME280_humidity;BME280_pressure;Samples;Min_cycle;Max_cycle;Signal;HPM_P1;HPM_P2
2022/08/25 00:02:19;;;;;;;15.18;9.27;;;18.80;99.90;;;;;;5089313;28;20049;-53
2022/08/25 00:04:45;;;;;;;11.30;8.30;;;18.80;99.90;;;;;;5089889;28;20538;-53
2022/08/25 00:07:11;;;;;;;11.13;8.65;;;18.80;99.90;;;;;;5089926;28;20090;-53
2022/08/25 00:09:36;;;;;;;10.13;8.18;;;18.80;99.90;;;;;;5078540;28;20589;-55
2022/08/25 00:12:03;;;;;;;11.80;8.65;;;18.80;99.90;;;;;;5084145;28;20021;-55
2022/08/25 00:14:33;;;;;;;11.93;8.48;;;18.80;99.90;;;;;;5089622;28;20235;-55
2022/08/25 00:17:00;;;;;;;10.32;8.60;;;18.80;99.90;;;;;;5084887;28;20506;-55
2022/08/25 00:19:30;;;;;;;11.10;8.45;;;18.80;99.90;;;;;;5068837;28;20165;-54
2022/08/25 00:21:55;;;;;;;11.73;9.15;;;18.80;99.90;;;;;;5068762;28;20134;-54
2022/08/25 00:24:23;;;;;;;11.60;8.27;;;18.80;99.90;;;;;;5068927;28;20509;-53
2022/08/25 00:26:51;;;;;;;11.73;8.82;;;18.70;99.90;;;;;;5069242;28;20013;-53
2022/08/25 00:29:17;;;;;;;11.98;9.35;;;18.70;99.90;;;;;;5066639;28;20023;-53
2022/08/25 00:31:44;;;;;;;11.82;9.40;;;18.70;99.90;;;;;;5068308;28;20021;-53
2022/08/25 00:34:17;;;;;;;13.85;9.50;;;18.70;99.90;;;;;;5068801;28;20099;-53
2022/08/25 00:36:44;;;;;;;13.73;9.25;;;18.70;99.90;;;;;;5074128;28;20024;-53
2022/08/25 00:39:10;;;;;;;12.77;9.85;;;18.70;99.90;;;;;;5067101;28;20403;-53
2022/08/25 00:41:37;;;;;;;16.30;10.30;;;18.70;99.90;;;;;;5067725;28;20111;-53
2022/08/25 00:44:06;;;;;;;13.68;10.20;;;18.70;99.90;;;;;;5068741;28;20017;-54
2022/08/25 00:46:43;;;;;;;14.52;10.55;;;18.70;99.90;;;;;;5068662;28;20031;-54
2022/08/25 00:49:22;;;;;;;16.15;10.57;;;18.70;99.90;;;;;;5067170;28;20025;-53
2022/08/25 00:51:58;;;;;;;17.23;11.10;;;18.70;99.90;;;;;;5069199;28;20024;-53
2022/08/25 00:54:28;;;;;;;12.50;9.85;;;18.70;99.90;;;;;;5079426;28;20326;-53
2022/08/25 00:56:55;;;;;;;12.65;10.48;;;18.70;99.90;;;;;;5066852;28;20446;-54
2022/08/25 00:59:23;;;;;;;15.20;9.93;;;18.70;99.90;;;;;;5066964;28;20107;-54
2022/08/25 01:01:50;;;;;;;12.60;10.32;;;18.60;99.90;;;;;;5067653;28;20046;-54
2022/08/25 01:04:16;;;;;;;15.38;10.73;;;18.60;99.90;;;;;;5068546;28;20024;-53
2022/08/25 01:06:43;;;;;;;15.45;10.00;;;18.50;99.90;;;;;;5068149;28;20592;-55
2022/08/25 01:09:11;;;;;;;16.00;10.57;;;18.60;99.90;;;;;;5067515;28;20066;-53
2022/08/25 01:11:37;;;;;;;12.98;10.00;;;18.50;99.90;;;;;;5078525;28;20027;-54
2022/08/25 01:14:05;;;;;;;15.60;10.25;;;18.50;99.90;;;;;;5088741;28;20032;-54
2022/08/25 01:16:33;;;;;;;15.20;11.07;;;18.50;99.90;;;;;;5088814;28;20220;-55
2022/08/25 01:18:59;;;;;;;15.25;10.73;;;18.40;99.90;;;;;;5088564;28;20179;-55
2022/08/25 01:21:27;;;;;;;16.17;11.50;;;18.40;99.90;;;;;;5086667;28;20032;-55
2022/08/25 01:23:54;;;;;;;13.07;10.32;;;18.40;99.90;;;;;;5088243;28;20040;-55
2022/08/25 01:26:29;;;;;;;13.20;10.27;;;18.40;99.90;;;;;;5088565;28;20074;-55
2022/08/25 01:31:40;;;;;;;18.00;11.00;;;18.30;99.90;;;;;;5088149;28;20030;-54
2022/08/25 01:34:07;;;;;;;14.13;10.77;;;18.30;99.90;;;;;;5088828;28;20016;-55
2022/08/25 01:36:34;;;;;;;17.27;11.50;;;18.30;99.90;;;;;;5087931;28;20053;-54
2022/08/25 01:39:00;;;;;;;17.80;12.13;;;18.30;99.90;;;;;;5086173;28;20107;-54
2022/08/25 01:41:35;;;;;;;13.95;10.65;;;18.30;99.90;;;;;;5079929;28;20107;-54
2022/08/25 01:44:04;;;;;;;22.60;13.77;;;18.30;99.90;;;;;;5088529;28;20032;-54
2022/08/25 01:46:30;;;;;;;21.02;12.20;;;18.30;99.90;;;;;;5088407;28;20021;-54
2022/08/25 01:48:55;;;;;;;17.13;11.55;;;18.30;99.90;;;;;;5088576;28;20021;-54
2022/08/25 01:51:24;;;;;;;16.58;11.93;;;18.20;99.90;;;;;;5087643;28;20081;-54
2022/08/25 01:53:50;;;;;;;16.92;13.43;;;18.20;99.90;;;;;;5088176;28;20388;-55
2022/08/25 01:56:16;;;;;;;15.25;12.93;;;18.20;99.90;;;;;;5087275;28;20102;-54
2022/08/25 01:58:44;;;;;;;20.60;14.35;;;18.20;99.90;;;;;;5087152;28;20486;-54
2022/08/25 02:01:14;;;;;;;16.17;12.07;;;18.20;99.90;;;;;;5087501;28;20169;-54
2022/08/25 02:03:42;;;;;;;17.57;12.90;;;18.10;99.90;;;;;;5088386;28;20406;-54
2022/08/25 02:06:13;;;;;;;19.80;14.30;;;18.10;99.90;;;;;;5088329;28;20824;-54
2022/08/25 02:08:39;;;;;;;19.77;14.57;;;18.10;99.90;;;;;;5086367;28;20113;-55
2022/08/25 02:11:10;;;;;;;22.80;14.35;;;18.20;99.90;;;;;;5079471;28;20391;-54
2022/08/25 02:13:36;;;;;;;20.10;14.07;;;18.10;99.90;;;;;;5088171;28;20028;-55
2022/08/25 02:16:02;;;;;;;20.33;13.90;;;18.20;99.90;;;;;;5088525;28;20032;-55
2022/08/25 02:18:28;;;;;;;24.88;13.88;;;18.10;99.90;;;;;;5088296;28;20563;-55
2022/08/25 02:20:53;;;;;;;19.98;14.68;;;18.10;99.90;;;;;;5087229;28;20027;-54
2022/08/25 02:23:19;;;;;;;20.30;15.13;;;18.10;99.90;;;;;;5091823;28;20032;-54
2022/08/25 02:25:45;;;;;;;22.67;14.63;;;18.10;99.90;;;;;;5091458;28;20027;-54
2022/08/25 02:28:11;;;;;;;20.08;13.82;;;18.10;99.90;;;;;;5092118;28;20075;-54
2022/08/25 02:30:40;;;;;;;17.20;13.85;;;18.10;99.90;;;;;;5091243;28;20060;-55
2022/08/25 02:33:05;;;;;;;17.55;13.57;;;18.10;99.90;;;;;;5091708;28;20020;-54
2022/08/25 02:35:31;;;;;;;18.75;13.77;;;18.00;99.90;;;;;;5091630;28;20437;-54
2022/08/25 02:37:56;;;;;;;19.55;14.57;;;18.00;99.90;;;;;;5091484;28;20030;-55
2022/08/25 02:40:22;;;;;;;19.95;14.73;;;18.00;99.90;;;;;;5079783;28;20082;-55
2022/08/25 02:42:50;;;;;;;19.10;14.35;;;18.00;99.90;;;;;;5090734;28;20065;-54
2022/08/25 02:45:17;;;;;;;21.52;15.18;;;18.00;99.90;;;;;;5091164;28;20052;-54
2022/08/25 02:47:43;;;;;;;21.95;15.32;;;18.00;99.90;;;;;;5089904;28;20028;-54
2022/08/25 02:50:09;;;;;;;20.75;14.93;;;18.00;99.90;;;;;;5091280;28;20028;-54
2022/08/25 02:52:35;;;;;;;21.63;16.27;;;17.90;99.90;;;;;;5090949;28;20024;-54
2022/08/25 02:55:04;;;;;;;20.20;15.05;;;17.90;99.90;;;;;;5090925;28;20050;-55
2022/08/25 02:57:30;;;;;;;21.58;16.13;;;17.90;99.90;;;;;;5088154;28;20044;-54
2022/08/25 02:59:57;;;;;;;19.70;15.18;;;17.80;99.90;;;;;;5088276;28;20035;-54
2022/08/25 03:02:23;;;;;;;24.60;15.65;;;17.80;99.90;;;;;;5083074;28;20039;-54
2022/08/25 03:04:50;;;;;;;22.92;15.75;;;17.80;99.90;;;;;;5082518;28;20033;-55
2022/08/25 03:07:17;;;;;;;24.23;16.73;;;17.80;99.90;;;;;;5091222;28;20020;-54
2022/08/25 03:09:43;;;;;;;18.02;15.80;;;17.70;99.90;;;;;;5090908;28;20536;-54
2022/08/25 03:12:09;;;;;;;22.60;16.48;;;17.70;99.90;;;;;;5090895;28;20031;-55
2022/08/25 03:14:35;;;;;;;22.42;16.50;;;17.80;99.90;;;;;;5091222;28;20326;-54
2022/08/25 03:17:00;;;;;;;22.52;15.77;;;17.70;99.90;;;;;;5091095;28;20024;-54
2022/08/25 03:19:26;;;;;;;21.42;16.55;;;17.70;99.90;;;;;;5091199;28;20024;-54
2022/08/25 03:21:55;;;;;;;22.17;16.67;;;17.80;99.90;;;;;;5090121;28;20028;-54
2022/08/25 03:24:21;;;;;;;21.00;17.20;;;17.80;99.90;;;;;;5090532;28;20016;-55
2022/08/25 03:26:52;;;;;;;24.17;16.55;;;17.70;99.90;;;;;;5090460;28;20093;-54
2022/08/25 03:29:18;;;;;;;21.52;16.13;;;17.70;99.90;;;;;;5090222;28;20031;-54
2022/08/25 03:31:44;;;;;;;25.42;17.98;;;17.70;99.90;;;;;;5087022;28;20479;-54
2022/08/25 03:34:18;;;;;;;24.85;17.60;;;17.70;99.90;;;;;;5078561;28;20109;-54
2022/08/25 03:36:45;;;;;;;21.60;16.52;;;17.70;99.90;;;;;;5050195;28;20037;-54
2022/08/25 03:39:12;;;;;;;25.58;18.40;;;17.60;99.90;;;;;;5049728;28;20112;-54
2022/08/25 03:41:38;;;;;;;22.67;16.90;;;17.60;99.90;;;;;;5081124;28;20027;-54
2022/08/25 03:44:05;;;;;;;18.60;15.40;;;17.60;99.90;;;;;;5090312;28;20036;-55
2022/08/25 03:46:34;;;;;;;22.70;16.42;;;17.50;99.90;;;;;;5090559;28;20525;-55
2022/08/25 03:49:01;;;;;;;24.08;18.63;;;17.50;99.90;;;;;;5090330;28;20141;-54
2022/08/25 03:51:31;;;;;;;19.80;16.80;;;17.50;99.90;;;;;;5089441;28;20024;-54
2022/08/25 03:53:57;;;;;;;24.30;18.98;;;17.50;99.90;;;;;;5090149;28;20020;-54
2022/08/25 03:56:23;;;;;;;22.95;17.38;;;17.50;99.90;;;;;;5090168;28;20031;-53
2022/08/25 03:58:49;;;;;;;25.60;17.67;;;17.40;99.90;;;;;;5090107;28;20032;-55
2022/08/25 04:01:15;;;;;;;24.85;18.92;;;17.40;99.90;;;;;;5089229;28;20513;-55
2022/08/25 04:03:40;;;;;;;26.55;18.85;;;17.50;99.90;;;;;;5089729;28;20243;-55
2022/08/25 04:06:06;;;;;;;28.88;20.58;;;17.50;99.90;;;;;;5089688;28;20012;-55
2022/08/25 04:08:32;;;;;;;25.10;19.33;;;17.50;99.90;;;;;;5087617;28;20028;-54
2022/08/25 04:10:58;;;;;;;30.83;20.33;;;17.50;99.90;;;;;;5071952;28;20017;-54
2022/08/25 04:13:24;;;;;;;27.42;19.02;;;17.50;99.90;;;;;;5068625;28;20025;-55
2022/08/25 04:15:49;;;;;;;23.63;19.75;;;17.50;99.90;;;;;;5069187;28;20027;-55
2022/08/25 04:18:15;;;;;;;29.52;20.58;;;17.50;99.90;;;;;;5069420;28;20111;-55
2022/08/25 04:20:41;;;;;;;27.02;21.80;;;17.50;99.90;;;;;;5068231;28;20060;-54
2022/08/25 04:23:09;;;;;;;27.85;20.38;;;17.60;99.90;;;;;;5069146;28;20025;-54
2022/08/25 04:25:41;;;;;;;29.83;19.92;;;17.60;99.90;;;;;;5074241;28;20700;-54
2022/08/25 04:28:07;;;;;;;27.48;19.65;;;17.60;99.90;;;;;;5066292;28;20013;-54
2022/08/25 04:30:33;;;;;;;27.35;19.63;;;17.50;99.90;;;;;;5068166;28;20074;-54
2022/08/25 04:32:58;;;;;;;32.50;21.48;;;17.50;99.90;;;;;;5068468;28;20017;-54
2022/08/25 04:35:24;;;;;;;31.77;21.63;;;17.50;99.90;;;;;;5068913;28;20032;-54
2022/08/25 04:37:49;;;;;;;26.23;20.33;;;17.60;99.90;;;;;;5071193;28;20419;-54
2022/08/25 04:40:15;;;;;;;24.83;19.35;;;17.60;99.90;;;;;;5070307;28;20078;-54
2022/08/25 04:42:40;;;;;;;26.05;20.25;;;17.70;99.90;;;;;;5075572;28;20499;-54
2022/08/25 04:45:06;;;;;;;25.23;20.58;;;17.70;99.90;;;;;;5068483;28;20339;-54
2022/08/25 04:47:36;;;;;;;27.77;19.67;;;17.70;99.90;;;;;;5068550;28;20074;-55
2022/08/25 04:50:02;;;;;;;27.53;19.67;;;17.80;99.90;;;;;;5069156;28;20051;-53
2022/08/25 04:52:28;;;;;;;26.90;20.77;;;17.80;99.90;;;;;;5067841;28;20048;-53
2022/08/25 04:54:54;;;;;;;27.30;19.88;;;17.80;99.90;;;;;;5068329;28;20033;-53
2022/08/25 04:57:19;;;;;;;28.65;19.98;;;17.80;99.90;;;;;;5068596;28;20491;-53
2022/08/25 04:59:45;;;;;;;31.50;22.90;;;17.90;99.90;;;;;;5068320;28;20085;-53
2022/08/25 05:02:10;;;;;;;29.45;22.58;;;17.90;99.90;;;;;;5068170;28;20045;-54
2022/08/25 05:04:36;;;;;;;35.30;23.00;;;17.90;99.90;;;;;;5067540;28;20338;-53
2022/08/25 05:07:02;;;;;;;27.60;20.73;;;17.90;99.90;;;;;;5067984;28;20024;-53
2022/08/25 05:09:28;;;;;;;30.85;20.50;;;17.90;99.90;;;;;;5066876;28;20024;-53
2022/08/25 05:11:53;;;;;;;26.10;20.25;;;18.00;99.90;;;;;;5075421;28;20153;-53
2022/08/25 05:14:21;;;;;;;29.92;20.55;;;18.00;99.90;;;;;;5065659;28;20246;-53
2022/08/25 05:16:47;;;;;;;32.95;21.80;;;18.10;99.90;;;;;;5066423;28;20032;-53
2022/08/25 05:19:13;;;;;;;24.77;19.67;;;18.20;99.90;;;;;;5069014;28;20479;-54
2022/08/25 05:21:39;;;;;;;25.73;19.25;;;18.20;99.90;;;;;;5067475;28;20036;-53
2022/08/25 05:24:04;;;;;;;31.17;20.85;;;18.30;99.90;;;;;;5068180;28;20024;-53
2022/08/25 05:26:32;;;;;;;30.05;19.83;;;18.40;99.90;;;;;;5067946;28;20021;-53
2022/08/25 05:28:58;;;;;;;41.38;22.73;;;18.40;99.90;;;;;;5067989;28;20029;-53
2022/08/25 05:31:25;;;;;;;38.13;24.55;;;18.50;99.90;;;;;;5067265;28;20016;-53
2022/08/25 05:33:53;;;;;;;36.85;23.10;;;18.50;99.90;;;;;;5067988;28;20029;-53
2022/08/25 05:36:22;;;;;;;29.95;20.92;;;18.60;99.90;;;;;;5067885;28;20033;-53
2022/08/25 05:38:48;;;;;;;30.55;21.17;;;18.60;99.90;;;;;;5067920;28;20063;-53
2022/08/25 05:41:18;;;;;;;34.28;21.20;;;18.60;99.90;;;;;;5072744;28;20387;-53
2022/08/25 05:43:45;;;;;;;33.85;22.65;;;18.70;99.90;;;;;;5069882;28;20059;-53
2022/08/25 05:46:11;;;;;;;31.80;21.50;;;18.70;99.90;;;;;;5068142;28;20082;-53
2022/08/25 05:48:38;;;;;;;31.35;20.30;;;18.70;99.90;;;;;;5067727;28;20033;-53
2022/08/25 05:51:06;;;;;;;35.25;21.00;;;18.80;99.90;;;;;;5067479;28;20099;-53
2022/08/25 05:53:31;;;;;;;32.28;19.85;;;18.90;99.90;;;;;;5067698;28;20388;-53
2022/08/25 05:55:58;;;;;;;33.50;20.55;;;18.90;99.90;;;;;;5070718;28;20055;-53
2022/08/25 05:58:27;;;;;;;30.23;18.63;;;18.90;99.90;;;;;;5072124;28;20043;-53
2022/08/25 06:00:53;;;;;;;31.52;20.10;;;19.00;99.90;;;;;;5071288;28;20029;-53
2022/08/25 06:03:18;;;;;;;28.90;19.08;;;19.00;99.90;;;;;;5071551;28;20039;-53
2022/08/25 06:05:44;;;;;;;29.63;18.73;;;19.10;99.90;;;;;;5072017;28;20025;-53
2022/08/25 06:08:10;;;;;;;27.05;18.15;;;19.10;99.90;;;;;;5070510;28;20021;-53
2022/08/25 06:10:35;;;;;;;22.83;17.00;;;19.20;99.90;;;;;;5076293;28;20081;-53
2022/08/25 06:13:01;;;;;;;29.17;19.02;;;19.20;99.90;;;;;;5080135;28;20104;-53
2022/08/25 06:15:27;;;;;;;27.85;18.60;;;19.30;99.90;;;;;;5082472;28;20021;-54
2022/08/25 06:17:55;;;;;;;27.52;19.13;;;19.30;99.90;;;;;;5092213;28;20032;-54
2022/08/25 06:20:25;;;;;;;30.98;19.35;;;19.30;99.90;;;;;;5091843;28;20164;-53
2022/08/25 06:22:51;;;;;;;27.50;18.17;;;19.40;99.90;;;;;;5091598;28;20024;-53
2022/08/25 06:25:19;;;;;;;30.27;20.83;;;19.50;99.90;;;;;;5084566;28;20024;-51
2022/08/25 06:27:45;;;;;;;31.98;20.13;;;19.50;99.90;;;;;;5083307;28;20077;-53
2022/08/25 06:30:14;;;;;;;31.35;20.23;;;19.50;99.90;;;;;;5091333;28;20434;-53
2022/08/25 06:32:42;;;;;;;30.65;18.25;;;19.50;99.90;;;;;;5078804;28;20023;-54
2022/08/25 06:35:11;;;;;;;33.05;20.52;;;19.60;99.90;;;;;;5087672;28;20089;-54
2022/08/25 06:37:37;;;;;;;38.55;22.02;;;19.60;99.90;;;;;;5089614;28;20048;-53
2022/08/25 06:40:04;;;;;;;32.63;20.35;;;19.80;99.90;;;;;;5091606;28;20425;-54
2022/08/25 06:42:29;;;;;;;31.83;19.63;;;19.90;99.90;;;;;;5090301;28;20054;-55
2022/08/25 06:44:55;;;;;;;34.17;20.50;;;19.90;99.90;;;;;;5089234;28;20016;-52
2022/08/25 06:47:20;;;;;;;33.47;20.98;;;20.10;99.90;;;;;;5082543;28;20020;-53
2022/08/25 06:49:46;;;;;;;32.58;21.67;;;20.20;99.90;;;;;;5091472;28;20426;-52
2022/08/25 06:52:12;;;;;;;33.33;21.80;;;20.30;99.90;;;;;;5087807;28;20024;-53
2022/08/25 06:54:39;;;;;;;35.38;22.40;;;20.30;99.90;;;;;;5081224;28;20020;-53
2022/08/25 06:57:05;;;;;;;33.58;21.17;;;20.40;99.90;;;;;;5088314;28;20063;-53
2022/08/25 06:59:31;;;;;;;34.65;20.42;;;20.60;99.90;;;;;;5082130;28;20076;-53
2022/08/25 07:01:58;;;;;;;35.50;22.15;;;20.60;99.90;;;;;;5090627;28;20605;-52
2022/08/25 07:04:23;;;;;;;32.60;19.90;;;20.70;99.90;;;;;;5088600;28;20277;-52
2022/08/25 07:06:49;;;;;;;32.83;19.55;;;20.80;99.90;;;;;;5081652;28;20111;-53
2022/08/25 07:09:14;;;;;;;31.70;20.35;;;20.80;99.90;;;;;;5089135;28;20070;-53
2022/08/25 07:11:40;;;;;;;35.58;19.83;;;20.90;99.90;;;;;;5080345;28;20111;-53
2022/08/25 07:14:08;;;;;;;32.95;21.00;;;21.00;99.90;;;;;;5089899;28;20032;-53
2022/08/25 07:16:34;;;;;;;25.73;18.88;;;20.90;99.90;;;;;;5090329;28;20108;-55
2022/08/25 07:19:00;;;;;;;32.17;21.55;;;20.90;99.90;;;;;;5090078;28;20093;-54
2022/08/25 07:21:28;;;;;;;26.52;18.95;;;20.90;99.90;;;;;;5088607;28;20024;-55
2022/08/25 07:23:57;;;;;;;26.23;19.63;;;21.00;99.90;;;;;;5090200;28;20035;-54
2022/08/25 07:26:26;;;;;;;29.33;18.02;;;21.10;99.90;;;;;;5080506;28;20068;-54
2022/08/25 07:28:52;;;;;;;28.35;17.80;;;21.20;99.90;;;;;;5084168;28;20063;-55
2022/08/25 07:31:17;;;;;;;26.67;16.27;;;21.30;99.90;;;;;;5081637;28;20070;-55
2022/08/25 07:36:27;;;;;;;23.63;16.13;;;21.50;99.90;;;;;;5086137;28;20513;-54
2022/08/25 07:38:53;;;;;;;25.08;16.67;;;21.60;99.90;;;;;;5072523;28;20040;-55
2022/08/25 07:41:18;;;;;;;24.67;16.38;;;21.70;99.90;;;;;;5067407;28;20066;-55
2022/08/25 07:43:44;;;;;;;24.58;16.38;;;21.90;99.90;;;;;;5070080;28;20035;-55
2022/08/25 07:46:09;;;;;;;19.52;15.18;;;22.10;99.90;;;;;;5069378;28;20036;-54
2022/08/25 07:48:35;;;;;;;20.35;15.02;;;22.30;99.90;;;;;;5060833;28;20048;-53
2022/08/25 07:51:06;;;;;;;24.33;16.73;;;22.50;99.90;;;;;;5047246;28;20116;-53
2022/08/25 07:53:32;;;;;;;19.83;13.65;;;22.70;99.90;;;;;;5062344;28;20023;-54
2022/08/25 07:55:57;;;;;;;18.95;13.98;;;23.10;99.90;;;;;;5080914;28;20028;-54
2022/08/25 07:58:23;;;;;;;17.52;13.15;;;23.40;99.90;;;;;;5087304;28;20028;-54
2022/08/25 08:00:50;;;;;;;17.10;11.18;;;24.10;99.90;;;;;;5076452;28;20103;-54
2022/08/25 08:03:16;;;;;;;12.85;10.00;;;25.10;99.90;;;;;;5084405;28;20028;-54
2022/08/25 08:05:41;;;;;;;15.80;9.02;;;26.30;99.90;;;;;;5082844;28;20016;-55
2022/08/25 08:08:07;;;;;;;14.45;10.10;;;27.50;99.90;;;;;;5080570;28;20012;-54
2022/08/25 08:10:32;;;;;;;13.35;9.18;;;28.30;99.90;;;;;;5084022;28;20020;-55
2022/08/25 08:12:58;;;;;;;13.40;8.52;;;29.20;97.80;;;;;;5080120;28;20024;-54
2022/08/25 08:15:23;;;;;;;17.40;8.32;;;30.20;95.80;;;;;;5084618;28;20684;-54
2022/08/25 08:17:49;;;;;;;12.98;8.13;;;31.00;93.70;;;;;;5076857;28;20040;-54
2022/08/25 08:20:15;;;;;;;8.60;7.45;;;32.00;91.10;;;;;;5073764;28;20035;-54
2022/08/25 08:22:42;;;;;;;13.77;9.38;;;32.40;89.10;;;;;;5069079;28;20107;-55
2022/08/25 08:25:10;;;;;;;13.63;8.02;;;33.40;84.10;;;;;;5079165;28;20024;-54
2022/08/25 08:27:36;;;;;;;14.07;7.55;;;33.80;81.40;;;;;;5078843;28;20024;-55
2022/08/25 08:30:03;;;;;;;8.18;6.50;;;33.90;79.50;;;;;;5088661;28;20028;-56
2022/08/25 08:32:28;;;;;;;10.68;6.70;;;34.60;76.30;;;;;;5076906;28;20017;-54
2022/08/25 08:34:54;;;;;;;10.70;6.10;;;34.30;75.50;;;;;;5078349;28;20023;-54
2022/08/25 08:37:21;;;;;;;11.75;6.63;;;34.60;74.60;;;;;;5088548;28;20036;-54
2022/08/25 08:39:46;;;;;;;11.68;6.35;;;34.70;73.80;;;;;;5088374;28;20650;-54
2022/08/25 08:42:38;;;;;;;12.23;6.05;;;35.40;72.20;;;;;;5088100;28;20118;-54
2022/08/25 08:45:34;;;;;;;10.35;5.43;;;35.40;71.20;;;;;;5088657;28;20065;-54
2022/08/25 08:48:09;;;;;;;11.50;5.60;;;36.10;68.70;;;;;;5086404;28;20376;-54
2022/08/25 08:50:59;;;;;;;11.35;5.50;;;36.50;67.90;;;;;;5060415;28;20021;-55
2022/08/25 08:53:40;;;;;;;7.28;4.70;;;37.00;65.70;;;;;;5048100;28;20021;-54
2022/08/25 08:56:09;;;;;;;11.95;5.45;;;37.10;65.30;;;;;;5046571;28;20025;-54
2022/08/25 08:58:46;;;;;;;8.60;5.32;;;37.00;65.40;;;;;;5048248;28;20032;-55
2022/08/25 09:01:17;;;;;;;8.98;4.93;;;37.20;65.10;;;;;;5070808;28;20025;-55
2022/08/25 09:03:55;;;;;;;12.82;5.63;;;37.50;63.60;;;;;;5088233;28;20119;-55
2022/08/25 09:06:31;;;;;;;8.65;5.43;;;36.70;63.70;;;;;;5088212;28;20016;-55
2022/08/25 09:09:00;;;;;;;8.77;5.43;;;36.40;64.80;;;;;;5087954;28;20016;-54
2022/08/25 09:11:26;;;;;;;;;;;36.90;64.10;;;;;;5088003;28;20135;-55
2022/08/25 09:14:00;;;;;;;9.68;5.95;;;36.30;65.10;;;;;;5087884;28;20538;-54
2022/08/25 09:17:00;;;;;;;11.73;5.72;;;36.60;63.90;;;;;;5086329;28;20032;-55
2022/08/25 09:19:43;;;;;;;12.82;5.70;;;36.50;63.70;;;;;;5085629;28;20068;-55
2022/08/25 09:22:57;;;;;;;9.93;5.25;;;37.90;62.60;;;;;;5087257;28;20028;-55
2022/08/25 09:26:04;;;;;;;9.48;5.55;;;38.50;60.20;;;;;;5055693;28;20406;-55
2022/08/25 09:28:39;;;;;;;11.07;5.20;;;38.60;59.70;;;;;;5087665;28;20040;-55
2022/08/25 09:31:12;;;;;;;8.93;4.88;;;38.60;58.80;;;;;;5076019;28;20396;-55
2022/08/25 09:33:38;;;;;;;9.50;5.55;;;37.80;59.40;;;;;;5054942;28;20108;-55
2022/08/25 09:36:04;;;;;;;16.83;5.95;;;36.80;61.00;;;;;;5055158;28;20100;-54
2022/08/25 09:38:30;;;;;;;11.25;5.60;;;35.40;63.90;;;;;;5052520;28;20048;-54
2022/08/25 09:40:59;;;;;;;10.55;6.63;;;35.40;63.40;;;;;;5053011;28;20563;-54
2022/08/25 09:43:32;;;;;;;12.50;6.85;;;34.70;64.40;;;;;;5054969;28;20478;-54
2022/08/25 09:46:09;;;;;;;8.07;6.22;;;34.20;65.60;;;;;;5053676;28;20104;-54
2022/08/25 09:48:45;;;;;;;9.32;6.40;;;33.00;68.20;;;;;;5055065;28;20108;-54
2022/08/25 09:51:27;;;;;;;14.50;6.80;;;32.10;70.10;;;;;;5054525;28;20078;-54
2022/08/25 09:54:15;;;;;;;12.30;8.02;;;31.90;71.20;;;;;;5053632;28;20403;-55
2022/08/25 09:56:59;;;;;;;16.50;7.88;;;31.50;71.70;;;;;;5054944;28;20425;-54
2022/08/25 09:59:34;;;;;;;16.10;8.70;;;31.00;73.90;;;;;;5059383;28;20104;-54
2022/08/25 10:02:01;;;;;;;18.08;9.27;;;30.50;75.10;;;;;;5084626;28;20024;-56
2022/08/25 10:04:36;;;;;;;20.08;9.43;;;30.20;76.10;;;;;;5093363;28;20024;-55
2022/08/25 10:07:24;;;;;;;17.95;8.18;;;30.40;75.90;;;;;;5077348;28;20021;-54
2022/08/25 10:09:53;;;;;;;15.00;8.48;;;30.90;75.70;;;;;;5053568;28;20104;-54
2022/08/25 10:12:24;;;;;;;14.90;8.75;;;31.00;74.70;;;;;;5070693;28;20537;-53
2022/08/25 10:14:50;;;;;;;11.63;7.88;;;30.80;74.50;;;;;;5088231;28;20028;-55
2022/08/25 10:17:30;;;;;;;15.93;8.68;;;31.10;74.20;;;;;;5080842;28;20024;-54
2022/08/25 10:20:08;;;;;;;14.07;8.40;;;31.00;73.90;;;;;;5085829;28;20039;-55
2022/08/25 10:22:34;;;;;;;13.13;8.43;;;30.70;74.80;;;;;;5093984;28;20067;-54
2022/08/25 10:25:02;;;;;;;11.98;8.25;;;30.50;75.20;;;;;;5081975;28;20016;-54
2022/08/25 10:27:46;;;;;;;14.60;9.55;;;30.20;76.30;;;;;;5093290;28;20020;-55
2022/08/25 10:30:56;;;;;;;14.10;9.85;;;29.60;79.00;;;;;;5083441;28;20051;-55
2022/08/25 10:33:33;;;;;;;16.80;10.63;;;29.10;80.10;;;;;;5093323;28;20050;-55
2022/08/25 10:36:42;;;;;;;19.75;10.40;;;28.90;81.30;;;;;;5085834;28;20107;-55
2022/08/25 10:39:19;;;;;;;14.98;10.07;;;28.70;82.30;;;;;;5094509;28;20024;-55
2022/08/25 10:42:19;;;;;;;19.60;11.60;;;28.50;83.00;;;;;;5090492;28;20031;-55
2022/08/25 10:48:08;;;;;;;20.92;10.18;;;28.30;84.70;;;;;;5079225;28;20035;-55
2022/08/25 10:50:55;;;;;;;16.27;9.35;;;28.50;83.70;;;;;;5070426;28;20025;-54
2022/08/25 10:53:42;;;;;;;17.55;10.20;;;28.50;84.60;;;;;;5069671;28;20300;-55
2022/08/25 10:56:23;;;;;;;18.23;10.55;;;28.90;83.20;;;;;;5075025;28;20247;-55
2022/08/25 10:58:58;;;;;;;15.98;9.65;;;29.30;82.80;;;;;;5050711;28;20025;-55
2022/08/25 11:01:43;;;;;;;16.05;9.90;;;29.20;81.70;;;;;;5077717;28;20016;-55
2022/08/25 11:04:12;;;;;;;19.08;9.95;;;29.10;82.70;;;;;;5068326;28;20479;-55
2022/08/25 11:06:46;;;;;;;16.42;9.35;;;29.40;83.20;;;;;;5070393;28;20078;-56
2022/08/25 11:09:18;;;;;;;12.73;8.70;;;29.80;81.10;;;;;;5076375;28;20090;-55
2022/08/25 11:11:58;;;;;;;16.13;9.10;;;29.90;80.50;;;;;;5077657;28;20048;-54
2022/08/25 11:14:38;;;;;;;11.50;8.70;;;30.10;80.20;;;;;;5082948;28;20024;-55
2022/08/25 11:20:12;;;;;;;16.27;8.82;;;29.50;80.80;;;;;;5070354;28;20043;-54
2022/08/25 11:22:44;;;;;;;12.70;8.88;;;29.70;81.50;;;;;;5070210;28;20025;-55
2022/08/25 11:25:34;;;;;;;14.32;8.57;;;30.90;80.10;;;;;;5072532;28;20052;-54
2022/08/25 11:28:09;;;;;;;15.43;8.23;;;31.60;77.70;;;;;;5080422;28;20200;-56
2022/08/25 11:30:36;;;;;;;13.55;8.18;;;31.80;76.20;;;;;;5089615;28;20103;-55
2022/08/25 11:33:03;;;;;;;15.98;9.50;;;31.70;76.30;;;;;;5090529;28;20024;-54
2022/08/25 11:35:36;;;;;;;15.63;9.00;;;31.30;76.10;;;;;;5090164;28;20024;-55
2022/08/25 11:38:36;;;;;;;17.05;9.93;;;30.70;77.50;;;;;;5088680;28;20020;-55
2022/08/25 11:41:17;;;;;;;16.08;7.90;;;31.00;78.60;;;;;;5079828;28;20034;-54
2022/08/25 11:44:01;;;;;;;13.18;7.68;;;32.80;75.50;;;;;;5080316;28;20039;-55
2022/08/25 11:46:42;;;;;;;16.50;8.20;;;33.20;72.70;;;;;;5068464;28;20446;-55
2022/08/25 11:49:37;;;;;;;15.50;7.90;;;32.80;72.00;;;;;;5069923;28;20490;-54
2022/08/25 11:52:05;;;;;;;12.63;8.15;;;33.20;72.30;;;;;;5057880;28;20166;-54
2022/08/25 11:54:38;;;;;;;16.33;8.00;;;33.90;71.50;;;;;;5071120;28;20036;-54
2022/08/25 11:57:29;;;;;;;13.55;7.10;;;34.40;67.50;;;;;;5083236;28;20024;-54
2022/08/25 12:00:06;;;;;;;17.48;7.22;;;35.10;68.10;;;;;;5087742;28;20388;-54
2022/08/25 12:02:50;;;;;;;12.13;6.88;;;35.80;66.00;;;;;;5077582;28;20036;-56
2022/08/25 12:05:18;;;;;;;12.65;7.13;;;36.20;64.50;;;;;;5086811;28;20558;-54
2022/08/25 12:07:47;;;;;;;15.68;7.10;;;35.90;65.20;;;;;;5081072;28;20017;-55
2022/08/25 12:10:19;;;;;;;13.10;6.53;;;35.90;65.00;;;;;;5086522;28;20054;-54
2022/08/25 12:12:45;;;;;;;76.50;68.32;;;35.60;63.80;;;;;;5088663;28;20475;-56
2022/08/25 12:15:30;;;;;;;156.40;139.38;;;35.90;64.20;;;;;;5085328;28;20027;-56
2022/08/25 12:18:13;;;;;;;14.95;8.98;;;35.90;64.70;;;;;;5072021;28;20029;-55
2022/08/25 12:20:54;;;;;;;14.18;7.07;;;35.90;63.60;;;;;;5052027;28;20020;-55
2022/08/25 12:24:02;;;;;;;16.52;7.40;;;34.90;66.10;;;;;;5080692;28;20143;-54
2022/08/25 12:26:52;;;;;;;13.50;6.80;;;34.40;67.40;;;;;;5077692;28;20032;-54
2022/08/25 12:29:26;;;;;;;11.80;7.28;;;34.20;68.60;;;;;;5080538;28;20028;-55
2022/08/25 12:32:16;;;;;;;13.32;6.70;;;34.20;67.30;;;;;;5086360;28;20024;-54
2022/08/25 12:34:51;;;;;;;14.38;7.38;;;33.90;68.10;;;;;;5088363;28;20027;-55
2022/08/25 12:37:20;;;;;;;12.50;6.72;;;34.00;68.60;;;;;;5045717;28;20029;-55
2022/08/25 12:39:58;;;;;;;14.40;7.78;;;33.80;67.50;;;;;;5048290;28;20116;-56
2022/08/25 12:42:31;;;;;;;13.18;6.55;;;33.30;68.90;;;;;;5046621;28;20014;-54
2022/08/25 12:45:18;;;;;;;14.82;8.27;;;33.60;68.10;;;;;;5046705;28;20029;-54
2022/08/25 12:47:46;;;;;;;13.10;7.40;;;33.90;67.80;;;;;;5048202;28;20124;-54
2022/08/25 12:50:26;;;;;;;11.10;6.97;;;33.90;68.10;;;;;;5048384;28;20102;-54
2022/08/25 12:52:54;;;;;;;14.18;7.57;;;33.80;68.10;;;;;;5045759;28;20021;-54
2022/08/25 12:55:25;;;;;;;12.50;6.60;;;33.90;67.80;;;;;;5049294;28;20028;-54
2022/08/25 12:57:57;;;;;;;10.98;6.93;;;33.60;68.10;;;;;;5076118;28;20416;-54
2022/08/25 13:00:28;;;;;;;9.05;6.72;;;33.60;68.40;;;;;;5085241;28;20039;-54